createdAt,value
2018-06-01T00:00:22.652Z,22.10
2018-06-01T00:02:52.773Z,22.20
2018-06-01T00:05:21.939Z,22.10
2018-06-01T00:07:51.360Z,22.00
2018-06-01T00:10:20.609Z,22.20
2018-06-01T00:12:49.809Z,22.30
2018-06-01T00:18:46.484Z,21.20
2018-06-01T00:21:15.773Z,21.10
2018-06-01T00:23:45.394Z,21.20
2018-06-01T00:26:14.699Z,21.30
2018-06-01T00:28:44.013Z,21.30
2018-06-01T00:31:13.240Z,21.40
2018-06-01T00:33:42.547Z,21.50
2018-06-01T00:36:11.855Z,21.50
2018-06-01T00:38:41.081Z,21.20
2018-06-01T00:41:10.315Z,20.90
2018-06-01T00:43:39.504Z,20.10
2018-06-01T00:46:10.606Z,19.40
2018-06-01T00:52:05.345Z,18.20
2018-06-01T00:54:45.967Z,18.30
2018-06-01T00:57:15.380Z,18.60
2018-06-01T00:59:44.723Z,18.70
2018-06-01T01:02:14.009Z,18.80
2018-06-01T01:04:43.384Z,18.90
2018-06-01T01:07:12.754Z,19.00
2018-06-01T01:13:13.711Z,19.10
2018-06-01T01:15:43.222Z,19.40
2018-06-01T01:18:13.629Z,19.30
2018-06-01T01:21:20.775Z,19.30
2018-06-01T01:23:50.091Z,19.20
2018-06-01T01:26:19.368Z,19.20
2018-06-01T01:28:56.561Z,19.40
2018-06-01T01:31:26.644Z,19.40
2018-06-01T01:33:56.117Z,19.30
2018-06-01T01:36:26.205Z,19.30
2018-06-01T01:38:55.544Z,19.30
2018-06-01T01:41:24.964Z,19.30
2018-06-01T01:43:54.432Z,19.10
2018-06-01T01:49:56.099Z,19.00
2018-06-01T01:52:25.902Z,19.20
2018-06-01T01:54:55.448Z,19.20
2018-06-01T01:57:24.976Z,19.20
2018-06-01T01:59:54.659Z,19.10
2018-06-01T02:02:24.317Z,19.10
2018-06-01T02:04:54.600Z,19.10
2018-06-01T02:07:24.112Z,19.10
2018-06-01T02:09:53.676Z,19.10
2018-06-01T02:15:43.829Z,19.10
2018-06-01T02:18:13.143Z,19.10
2018-06-01T02:20:42.640Z,18.90
2018-06-01T02:23:11.927Z,18.80
2018-06-01T02:25:42.440Z,18.90
2018-06-01T02:28:11.729Z,18.80
2018-06-01T02:30:46.198Z,18.80
2018-06-01T02:33:15.805Z,18.80
2018-06-01T02:35:45.033Z,18.80
2018-06-01T02:38:14.331Z,18.70
2018-06-01T02:40:43.589Z,18.70
2018-06-01T02:43:13.013Z,18.80
2018-06-01T02:45:42.381Z,18.80
2018-06-01T02:48:11.693Z,19.00
2018-06-01T02:50:41.000Z,19.10
2018-06-01T02:53:10.275Z,19.10
2018-06-01T02:55:42.560Z,19.00
2018-06-01T02:58:12.061Z,19.10
2018-06-01T03:00:41.373Z,19.10
2018-06-01T03:03:10.596Z,19.10
2018-06-01T03:06:19.583Z,19.00
2018-06-01T03:08:49.871Z,18.70
2018-06-01T03:11:19.372Z,18.60
2018-06-01T03:13:48.608Z,18.50
2018-06-01T03:16:17.950Z,18.50
2018-06-01T03:18:47.127Z,18.40
2018-06-01T03:21:16.431Z,18.40
2018-06-01T03:23:45.855Z,18.50
2018-06-01T03:26:15.757Z,18.50
2018-06-01T03:28:45.722Z,18.30
2018-06-01T03:34:46.544Z,18.30
2018-06-01T03:37:16.984Z,18.40
2018-06-01T03:39:46.528Z,18.30
2018-06-01T03:42:16.224Z,18.20
2018-06-01T03:44:45.925Z,18.00
2018-06-01T03:47:15.392Z,17.80
2018-06-01T03:49:45.219Z,17.70
2018-06-01T03:52:14.941Z,17.70
2018-06-01T03:54:47.940Z,17.80
2018-06-01T03:57:20.991Z,17.70
2018-06-01T03:59:53.398Z,17.70
2018-06-01T04:02:24.714Z,17.80
2018-06-01T04:04:55.929Z,17.80
2018-06-01T04:07:26.660Z,17.70
2018-06-01T04:09:56.421Z,17.80
2018-06-01T04:15:48.777Z,16.90
2018-06-01T04:18:18.125Z,16.90
2018-06-01T04:20:47.393Z,17.00
2018-06-01T04:23:16.715Z,17.00
2018-06-01T04:25:46.758Z,17.20
2018-06-01T04:28:17.378Z,17.20
2018-06-01T04:30:46.565Z,17.30
2018-06-01T04:36:38.477Z,17.20
2018-06-01T04:39:07.948Z,17.30
2018-06-01T04:41:37.265Z,17.40
2018-06-01T04:44:06.632Z,17.60
2018-06-01T04:46:35.947Z,17.60
2018-06-01T04:49:05.302Z,17.60
2018-06-01T04:51:41.799Z,17.60
2018-06-01T04:57:32.178Z,17.70
2018-06-01T05:00:01.425Z,17.60
2018-06-01T05:02:30.616Z,17.60
2018-06-01T05:04:59.820Z,17.70
2018-06-01T05:07:28.999Z,17.60
2018-06-01T05:09:58.249Z,17.40
2018-06-01T05:12:28.142Z,17.30
2018-06-01T05:14:57.452Z,17.30
2018-06-01T05:17:27.609Z,17.20
2018-06-01T05:19:56.732Z,17.20
2018-06-01T05:22:26.014Z,17.20
2018-06-01T05:24:55.226Z,16.60
2018-06-01T05:27:24.406Z,16.60
2018-06-01T05:29:53.590Z,16.70
2018-06-01T05:32:22.781Z,16.80
2018-06-01T05:34:51.953Z,16.80
2018-06-01T05:37:21.237Z,16.80
2018-06-01T05:39:50.574Z,16.90
2018-06-01T05:42:20.458Z,17.00
2018-06-01T05:44:49.697Z,17.00
2018-06-01T05:47:18.876Z,17.00
2018-06-01T05:49:48.048Z,17.10
2018-06-01T05:52:17.279Z,16.80
2018-06-01T05:54:46.567Z,16.80
2018-06-01T06:00:37.474Z,16.80
2018-06-01T06:03:06.852Z,17.00
2018-06-01T06:05:36.975Z,17.10
2018-06-01T06:08:07.346Z,17.00
2018-06-01T06:10:36.585Z,17.00
2018-06-01T06:13:06.009Z,17.10
2018-06-01T06:15:35.604Z,17.00
2018-06-01T06:18:04.965Z,17.00
2018-06-01T06:20:34.304Z,17.00
2018-06-01T06:23:03.739Z,17.10
2018-06-01T06:25:33.798Z,17.10
2018-06-01T06:28:03.415Z,17.00
2018-06-01T06:30:33.562Z,17.00
2018-06-01T06:33:02.979Z,17.10
2018-06-01T06:35:32.330Z,17.00
2018-06-01T06:41:23.367Z,17.10
2018-06-01T06:43:53.110Z,17.00
2018-06-01T06:46:23.417Z,16.90
2018-06-01T06:48:52.921Z,16.90
2018-06-01T06:51:22.426Z,16.90
2018-06-01T06:53:52.177Z,16.90
2018-06-01T06:56:21.731Z,16.90
2018-06-01T06:58:51.213Z,16.90
2018-06-01T07:01:20.880Z,16.80
2018-06-01T07:03:51.210Z,16.80
2018-06-01T07:06:21.455Z,16.80
2018-06-01T07:08:51.025Z,16.80
2018-06-01T07:11:21.272Z,16.80
2018-06-01T07:13:50.832Z,16.80
2018-06-01T07:16:20.325Z,16.80
2018-06-01T07:18:49.841Z,16.80
2018-06-01T07:21:19.480Z,16.90
2018-06-01T07:23:48.992Z,16.90
2018-06-01T07:26:19.536Z,16.90
2018-06-01T07:32:14.207Z,16.90
2018-06-01T07:34:43.846Z,16.90
2018-06-01T07:37:13.248Z,16.90
2018-06-01T07:39:43.518Z,16.80
2018-06-01T07:42:12.958Z,16.80
2018-06-01T07:44:43.295Z,16.80
2018-06-01T07:47:12.828Z,16.80
2018-06-01T07:49:42.452Z,16.90
2018-06-01T07:52:12.035Z,16.90
2018-06-01T07:54:41.401Z,16.90
2018-06-01T07:57:10.850Z,16.90
2018-06-01T07:59:40.257Z,16.80
2018-06-01T08:02:09.743Z,16.80
2018-06-01T08:04:39.191Z,16.80
2018-06-01T08:07:08.591Z,16.80
2018-06-01T08:09:38.213Z,16.80
2018-06-01T08:12:07.781Z,16.80
2018-06-01T08:14:37.223Z,16.70
2018-06-01T08:17:06.841Z,16.80
2018-06-01T08:20:06.113Z,16.80
2018-06-01T08:22:35.676Z,16.80
2018-06-01T08:25:05.191Z,16.80
2018-06-01T08:27:34.843Z,16.80
2018-06-01T08:33:25.835Z,16.80
2018-06-01T08:35:55.207Z,16.80
2018-06-01T08:38:24.623Z,16.70
2018-06-01T08:40:54.861Z,16.80
2018-06-01T08:43:24.284Z,16.80
2018-06-01T08:45:53.672Z,16.70
2018-06-01T08:48:23.301Z,16.70
2018-06-01T08:50:52.784Z,16.60
2018-06-01T08:53:22.297Z,16.60
2018-06-01T08:55:51.681Z,16.60
2018-06-01T08:58:21.036Z,16.50
2018-06-01T09:00:50.474Z,16.60
2018-06-01T09:03:20.688Z,16.60
2018-06-01T09:05:50.120Z,16.50
2018-06-01T09:08:19.603Z,16.60
2018-06-01T09:10:49.742Z,16.60
2018-06-01T09:13:47.194Z,16.60
2018-06-01T09:16:16.696Z,16.60
2018-06-01T09:18:47.060Z,16.60
2018-06-01T09:21:16.516Z,16.60
2018-06-01T09:23:46.017Z,16.50
2018-06-01T09:26:15.640Z,16.50
2018-06-01T09:28:46.077Z,16.60
2018-06-01T09:31:15.677Z,16.50
2018-06-01T09:33:45.475Z,16.60
2018-06-01T09:36:15.196Z,16.60
2018-06-01T09:38:45.542Z,16.60
2018-06-01T09:41:15.159Z,16.60
2018-06-01T09:43:44.616Z,16.60
2018-06-01T09:46:14.252Z,16.50
2018-06-01T09:48:43.792Z,16.50
2018-06-01T09:51:13.244Z,16.50
2018-06-01T09:53:43.477Z,16.50
2018-06-01T09:56:13.749Z,16.60
2018-06-01T09:58:43.373Z,16.60
2018-06-01T10:01:12.993Z,16.60
2018-06-01T10:03:42.461Z,16.60
2018-06-01T10:06:12.045Z,16.50
2018-06-01T10:08:41.624Z,16.50
2018-06-01T10:11:11.091Z,16.60
2018-06-01T10:13:40.592Z,16.50
2018-06-01T10:16:10.220Z,16.60
2018-06-01T10:18:39.796Z,16.50
2018-06-01T10:21:10.226Z,16.50
2018-06-01T10:23:39.685Z,16.60
2018-06-01T10:26:09.247Z,16.50
2018-06-01T10:28:38.704Z,16.60
2018-06-01T10:31:08.219Z,16.60
2018-06-01T10:33:37.743Z,16.60
2018-06-01T10:36:07.206Z,16.60
2018-06-01T10:38:36.714Z,16.60
2018-06-01T10:41:07.027Z,16.50
2018-06-01T10:43:36.485Z,16.50
2018-06-01T10:46:06.072Z,16.50
2018-06-01T10:48:35.892Z,16.50
2018-06-01T10:51:05.373Z,16.50
2018-06-01T10:53:35.641Z,16.50
2018-06-01T10:56:05.118Z,16.50
2018-06-01T10:58:35.172Z,16.60
2018-06-01T11:01:05.171Z,16.60
2018-06-01T11:03:34.668Z,16.50
2018-06-01T11:06:04.159Z,16.50
2018-06-01T11:08:34.473Z,16.60
2018-06-01T11:11:04.757Z,16.60
2018-06-01T11:13:34.221Z,16.60
2018-06-01T11:16:05.141Z,16.60
2018-06-01T11:18:35.427Z,16.60
2018-06-01T11:21:05.043Z,16.60
2018-06-01T11:23:34.507Z,16.60
2018-06-01T11:26:03.999Z,16.70
2018-06-01T11:28:33.504Z,16.70
2018-06-01T11:31:03.104Z,16.70
2018-06-01T11:33:32.557Z,16.70
2018-06-01T11:36:02.198Z,16.80
2018-06-01T11:38:31.968Z,16.80
2018-06-01T11:41:01.419Z,16.80
2018-06-01T11:43:30.876Z,16.80
2018-06-01T11:46:00.368Z,16.90
2018-06-01T11:48:29.869Z,16.90
2018-06-01T11:50:59.325Z,16.90
2018-06-01T11:53:28.815Z,16.90
2018-06-01T11:55:58.335Z,16.90
2018-06-01T11:58:27.796Z,16.90
2018-06-01T12:04:19.339Z,16.90
2018-06-01T12:10:09.712Z,17.00
2018-06-01T12:12:39.168Z,16.90
2018-06-01T12:15:08.635Z,16.80
2018-06-01T12:17:38.370Z,16.90
2018-06-01T12:20:09.813Z,16.90
2018-06-01T12:22:40.045Z,16.80
2018-06-01T12:25:09.613Z,16.80
2018-06-01T12:27:39.079Z,16.80
2018-06-01T12:30:08.541Z,16.80
2018-06-01T12:32:38.059Z,16.70
2018-06-01T12:35:07.487Z,16.70
2018-06-01T12:37:37.198Z,16.70
2018-06-01T12:40:06.941Z,16.80
2018-06-01T12:42:36.397Z,16.90
2018-06-01T12:45:08.400Z,16.90
2018-06-01T12:47:37.900Z,16.80
2018-06-01T12:50:48.382Z,16.80
2018-06-01T12:53:17.912Z,16.70
2018-06-01T12:55:48.017Z,16.80
2018-06-01T12:58:18.198Z,16.90
2018-06-01T13:00:47.617Z,16.90
2018-06-01T13:03:17.074Z,17.00
2018-06-01T13:05:46.394Z,17.10
2018-06-01T13:08:15.714Z,17.00
2018-06-01T13:10:45.151Z,17.20
2018-06-01T13:13:14.600Z,17.30
2018-06-01T13:15:43.930Z,17.40
2018-06-01T13:18:13.306Z,17.40
2018-06-01T13:20:42.764Z,17.40
2018-06-01T13:23:12.237Z,17.40
2018-06-01T13:25:45.027Z,17.50
2018-06-01T13:28:17.661Z,17.60
2018-06-01T13:30:50.996Z,17.60
2018-06-01T13:33:20.396Z,17.60
2018-06-01T13:35:49.805Z,17.70
2018-06-01T13:38:19.178Z,17.70
2018-06-01T13:40:48.502Z,18.00
2018-06-01T13:43:17.912Z,18.10
2018-06-01T13:45:47.269Z,18.20
2018-06-01T13:48:16.694Z,18.30
2018-06-01T13:50:46.140Z,18.20
2018-06-01T13:53:15.482Z,18.20
2018-06-01T13:55:44.932Z,18.20
2018-06-01T13:58:14.428Z,18.20
2018-06-01T14:00:43.723Z,18.10
2018-06-01T14:03:13.200Z,18.00
2018-06-01T14:05:42.443Z,18.10
2018-06-01T14:08:11.850Z,18.10
2018-06-01T14:10:41.261Z,18.20
2018-06-01T14:13:10.584Z,18.30
2018-06-01T14:15:39.900Z,18.50
2018-06-01T14:18:10.266Z,18.50
2018-06-01T14:24:11.092Z,18.60
2018-06-01T14:26:40.470Z,18.70
2018-06-01T14:29:09.813Z,18.80
2018-06-01T14:31:39.936Z,19.10
2018-06-01T14:34:09.280Z,19.00
2018-06-01T14:36:39.514Z,19.30
2018-06-01T14:39:09.056Z,19.20
2018-06-01T14:41:38.546Z,19.40
2018-06-01T14:44:08.277Z,19.50
2018-06-01T14:46:45.489Z,19.60
2018-06-01T14:49:14.865Z,19.70
2018-06-01T14:51:44.233Z,19.70
2018-06-01T14:54:13.875Z,19.70
2018-06-01T14:56:43.183Z,19.80
2018-06-01T14:59:12.584Z,19.90
2018-06-01T15:01:42.855Z,20.10
2018-06-01T15:04:12.212Z,20.10
2018-06-01T15:06:41.616Z,20.20
2018-06-01T15:09:11.273Z,20.30
2018-06-01T15:11:41.784Z,20.20
2018-06-01T15:14:11.261Z,20.20
2018-06-01T15:16:42.312Z,20.40
2018-06-01T15:19:11.778Z,20.20
2018-06-01T15:21:41.889Z,20.20
2018-06-01T15:24:12.029Z,20.30
2018-06-01T15:26:41.484Z,20.20
2018-06-01T15:29:10.820Z,20.40
2018-06-01T15:31:40.248Z,20.50
2018-06-01T15:34:09.551Z,20.50
2018-06-01T15:36:38.896Z,20.60
2018-06-01T15:39:08.408Z,20.60
2018-06-01T15:41:38.578Z,20.60
2018-06-01T15:44:08.023Z,20.70
2018-06-01T15:46:37.366Z,20.70
2018-06-01T15:49:07.425Z,20.90
2018-06-01T15:51:36.790Z,20.90
2018-06-01T15:57:28.082Z,21.00
2018-06-01T15:59:57.733Z,21.20
2018-06-01T16:02:27.365Z,21.40
2018-06-01T16:04:57.189Z,21.50
2018-06-01T16:07:26.797Z,21.40
2018-06-01T16:09:56.530Z,21.60
2018-06-01T16:12:26.311Z,21.40
2018-06-01T16:15:00.302Z,21.60
2018-06-01T16:17:30.304Z,21.60
2018-06-01T16:19:59.878Z,21.40
2018-06-01T16:22:29.701Z,21.40
2018-06-01T16:24:59.335Z,21.40
2018-06-01T16:27:29.205Z,21.30
2018-06-01T16:29:58.784Z,21.20
2018-06-01T16:32:29.872Z,21.20
2018-06-01T16:34:59.682Z,21.20
2018-06-01T16:37:29.372Z,21.20
2018-06-01T16:39:59.250Z,21.30
2018-06-01T16:42:30.494Z,21.10
2018-06-01T16:45:00.761Z,21.10
2018-06-01T16:47:31.884Z,20.80
2018-06-01T16:50:01.610Z,20.70
2018-06-01T16:52:31.660Z,20.50
2018-06-01T16:55:01.351Z,20.40
2018-06-01T16:57:30.974Z,20.40
2018-06-01T17:00:00.873Z,20.40
2018-06-01T17:02:31.077Z,20.50
2018-06-01T17:05:00.723Z,20.40
2018-06-01T17:07:31.311Z,20.30
2018-06-01T17:10:01.010Z,20.30
2018-06-01T17:12:30.764Z,20.40
2018-06-01T17:15:00.524Z,20.40
2018-06-01T17:17:30.364Z,20.40
2018-06-01T17:20:00.008Z,20.50
2018-06-01T17:22:29.666Z,20.40
2018-06-01T17:25:00.037Z,20.40
2018-06-01T17:30:51.693Z,20.30
2018-06-01T17:34:10.623Z,20.40
2018-06-01T17:36:40.415Z,20.30
2018-06-01T17:39:10.739Z,20.50
2018-06-01T17:41:40.548Z,20.50
2018-06-01T17:44:10.387Z,20.70
2018-06-01T17:46:40.051Z,20.70
2018-06-01T17:49:10.542Z,21.00
2018-06-01T17:51:40.312Z,20.90
2018-06-01T17:54:10.040Z,21.10
2018-06-01T17:56:42.367Z,21.20
2018-06-01T17:59:12.921Z,21.30
2018-06-01T18:01:42.611Z,21.30
2018-06-01T18:04:15.806Z,21.40
2018-06-01T18:06:48.430Z,21.30
2018-06-01T18:09:18.013Z,21.50
2018-06-01T18:11:48.161Z,21.40
2018-06-01T18:14:18.568Z,21.50
2018-06-01T18:16:48.848Z,21.60
2018-06-01T18:19:18.455Z,21.60
2018-06-01T18:21:47.973Z,21.70
2018-06-01T18:24:17.540Z,21.80
2018-06-01T18:26:47.922Z,22.00
2018-06-01T18:29:18.010Z,22.00
2018-06-01T18:34:24.161Z,22.10
2018-06-01T18:36:57.344Z,22.40
2018-06-01T18:39:27.961Z,22.30
2018-06-01T18:41:57.862Z,22.30
2018-06-01T18:44:27.718Z,22.40
2018-06-01T18:46:57.328Z,22.60
2018-06-01T18:49:27.729Z,22.70
2018-06-01T18:51:58.226Z,22.90
2018-06-01T18:54:27.838Z,22.90
2018-06-01T18:56:57.340Z,23.00
2018-06-01T18:59:27.263Z,22.90
2018-06-01T19:01:57.003Z,22.80
2018-06-01T19:04:27.446Z,22.90
2018-06-01T19:06:57.775Z,22.80
2018-06-01T19:09:29.467Z,23.10
2018-06-01T19:15:27.272Z,23.00
2018-06-01T19:17:59.315Z,22.90
2018-06-01T19:20:29.241Z,23.10
2018-06-01T19:23:02.288Z,22.90
2018-06-01T19:28:52.494Z,22.70
2018-06-01T19:34:54.279Z,22.90
2018-06-01T19:37:39.681Z,22.70
2018-06-01T19:43:23.032Z,22.90
2018-06-01T19:45:53.978Z,22.90
2018-06-01T19:48:24.887Z,23.20
2018-06-01T19:50:54.455Z,23.40
2018-06-01T19:53:36.929Z,23.00
2018-06-01T19:56:06.726Z,22.60
2018-06-01T19:58:43.079Z,22.60
2018-06-01T20:01:18.901Z,22.90
2018-06-01T20:03:48.636Z,23.20
2018-06-01T20:06:19.667Z,22.90
2018-06-01T20:08:49.975Z,22.60
2018-06-01T20:11:27.362Z,22.50
2018-06-01T20:14:01.485Z,22.40
2018-06-01T20:16:36.068Z,22.20
2018-06-01T20:19:07.877Z,21.90
2018-06-01T20:21:38.351Z,21.70
2018-06-01T20:24:14.912Z,21.70
2018-06-01T20:26:48.255Z,21.60
2018-06-01T20:29:19.562Z,21.50
2018-06-01T20:31:52.207Z,21.30
2018-06-01T20:34:24.488Z,21.30
2018-06-01T20:36:55.531Z,21.10
2018-06-01T20:39:33.625Z,21.00
2018-06-01T20:42:10.715Z,20.70
2018-06-01T20:44:44.982Z,20.60
2018-06-01T20:47:19.720Z,20.20
2018-06-01T20:49:52.755Z,19.90
2018-06-01T20:52:23.010Z,19.50
2018-06-01T20:54:52.744Z,19.30
2018-06-01T20:57:22.352Z,19.20
2018-06-01T20:59:51.927Z,19.10
2018-06-01T21:02:21.811Z,18.90
2018-06-01T21:04:52.264Z,18.70
2018-06-01T21:07:22.508Z,18.60
2018-06-01T21:09:52.097Z,18.60
2018-06-01T21:12:21.803Z,18.60
2018-06-01T21:14:51.377Z,18.60
2018-06-01T21:17:20.959Z,18.60
2018-06-01T21:19:50.549Z,18.60
2018-06-01T21:22:22.125Z,18.50
2018-06-01T21:24:52.025Z,18.50
2018-06-01T21:27:24.741Z,18.40
2018-06-01T21:29:54.542Z,18.30
2018-06-01T21:32:24.058Z,18.30
2018-06-01T21:34:53.559Z,18.30
2018-06-01T21:37:23.125Z,18.40
2018-06-01T21:39:53.650Z,18.50
2018-06-01T21:42:23.921Z,18.50
2018-06-01T21:45:02.163Z,18.50
2018-06-01T21:47:32.285Z,18.50
2018-06-01T21:50:01.841Z,18.60
2018-06-01T21:52:31.539Z,18.70
2018-06-01T21:55:01.185Z,18.70
2018-06-01T21:57:30.781Z,18.70
2018-06-01T22:00:00.529Z,18.70
2018-06-01T22:02:30.207Z,18.70
2018-06-01T22:05:03.134Z,18.60
2018-06-01T22:07:35.613Z,18.50
2018-06-01T22:10:08.349Z,18.60
2018-06-01T22:12:37.996Z,18.50
2018-06-01T22:15:07.560Z,18.60
2018-06-01T22:17:37.219Z,18.60
2018-06-01T22:20:06.857Z,18.60
2018-06-01T22:22:36.552Z,18.60
2018-06-01T22:25:07.063Z,18.40
2018-06-01T22:27:37.412Z,18.30
2018-06-01T22:30:06.984Z,18.30
2018-06-01T22:32:36.652Z,18.30
2018-06-01T22:35:06.371Z,18.30
2018-06-01T22:37:36.548Z,18.20
2018-06-01T22:40:06.941Z,18.30
2018-06-01T22:42:36.818Z,18.30
2018-06-01T22:45:14.665Z,18.30
2018-06-01T22:47:44.368Z,18.30
2018-06-01T22:50:14.040Z,18.30
2018-06-01T22:52:43.869Z,18.30
2018-06-01T22:55:13.471Z,18.30
2018-06-01T22:57:43.085Z,18.20
2018-06-01T23:00:13.049Z,18.10
2018-06-01T23:02:42.668Z,18.00
2018-06-01T23:05:12.440Z,18.00
2018-06-01T23:07:42.060Z,18.00
2018-06-01T23:10:11.680Z,18.00
2018-06-01T23:12:41.336Z,18.00
2018-06-01T23:15:10.936Z,17.90
2018-06-01T23:17:40.787Z,17.80
2018-06-01T23:20:10.373Z,17.70
2018-06-01T23:22:40.288Z,17.60
2018-06-01T23:25:10.342Z,17.60
2018-06-01T23:27:39.927Z,17.60
2018-06-01T23:30:09.566Z,17.50
2018-06-01T23:32:39.505Z,17.50
2018-06-01T23:35:09.201Z,17.50
2018-06-01T23:37:38.973Z,17.40
2018-06-01T23:40:18.181Z,17.40
2018-06-01T23:42:47.890Z,17.50
2018-06-01T23:45:17.770Z,17.50
2018-06-01T23:47:47.997Z,17.50
2018-06-01T23:50:17.763Z,17.50
2018-06-01T23:52:47.345Z,17.50
2018-06-01T23:55:16.841Z,17.40
2018-06-01T23:57:46.351Z,17.30
